createdAt,value
2023-05-14T00:00:34.380Z,20.02
2023-05-14T00:01:34.380Z,20.03
2023-05-14T00:02:34.465Z,20.02
2023-05-14T00:03:33.454Z,20.02
2023-05-14T00:04:33.555Z,20.02
2023-05-14T00:05:33.451Z,20.02
2023-05-14T00:06:34.414Z,20.02
2023-05-14T00:07:33.408Z,20.01
2023-05-14T00:08:34.442Z,20.01
2023-05-14T00:09:34.449Z,20.00
2023-05-14T00:10:34.464Z,20.01
2023-05-14T00:11:33.537Z,20.01
2023-05-14T00:12:33.477Z,20.00
2023-05-14T00:13:34.487Z,20.00
2023-05-14T00:14:34.500Z,20.00
2023-05-14T00:15:34.726Z,20.00
2023-05-14T00:16:34.574Z,19.99
2023-05-14T00:17:33.580Z,20.00
2023-05-14T00:18:33.575Z,20.00
2023-05-14T00:19:34.661Z,20.00
2023-05-14T00:20:33.561Z,20.00
2023-05-14T00:21:33.560Z,19.99
2023-05-14T00:22:33.561Z,19.99
2023-05-14T00:23:34.615Z,19.99
2023-05-14T00:24:33.606Z,19.99
2023-05-14T00:25:33.622Z,19.99
2023-05-14T00:26:34.608Z,19.99
2023-05-14T00:27:33.631Z,19.99
2023-05-14T00:28:33.635Z,19.98
2023-05-14T00:29:33.664Z,19.99
2023-05-14T00:30:34.642Z,19.99
2023-05-14T00:31:34.693Z,19.99
2023-05-14T00:32:34.713Z,19.98
2023-05-14T00:33:34.703Z,19.98
2023-05-14T00:34:34.705Z,19.98
2023-05-14T00:35:33.717Z,19.98
2023-05-14T00:36:33.730Z,19.98
2023-05-14T00:37:33.721Z,19.97
2023-05-14T00:38:33.733Z,19.97
2023-05-14T00:39:33.737Z,19.97
2023-05-14T00:40:34.769Z,19.97
2023-05-14T00:41:34.768Z,19.97
2023-05-14T00:42:34.779Z,19.96
2023-05-14T00:43:33.770Z,19.96
2023-05-14T00:44:34.802Z,19.97
2023-05-14T00:45:35.154Z,19.97
2023-05-14T00:46:33.886Z,19.97
2023-05-14T00:47:34.878Z,19.96
2023-05-14T00:48:34.845Z,19.97
2023-05-14T00:49:33.845Z,19.96
2023-05-14T00:50:34.833Z,19.96
2023-05-14T00:51:34.838Z,19.95
2023-05-14T00:52:34.865Z,19.95
2023-05-14T00:53:33.906Z,19.96
2023-05-14T00:54:33.873Z,19.96
2023-05-14T00:55:34.892Z,19.95
2023-05-14T00:56:35.062Z,19.95
2023-05-14T00:57:34.908Z,19.95
2023-05-14T00:58:34.939Z,19.95
2023-05-14T00:59:34.964Z,19.95
2023-05-14T01:00:34.956Z,19.95
2023-05-14T01:01:33.999Z,19.95
2023-05-14T01:02:35.035Z,19.95
2023-05-14T01:03:35.075Z,19.94
2023-05-14T01:04:34.042Z,19.94
2023-05-14T01:05:35.038Z,19.94
2023-05-14T01:06:35.035Z,19.95
2023-05-14T01:07:35.123Z,19.94
2023-05-14T01:08:35.073Z,19.94
2023-05-14T01:09:35.055Z,19.94
2023-05-14T01:10:35.068Z,19.93
2023-05-14T01:11:34.073Z,19.93
2023-05-14T01:12:35.084Z,19.93
2023-05-14T01:13:35.152Z,19.92
2023-05-14T01:14:35.126Z,19.93
2023-05-14T01:15:34.121Z,19.93
2023-05-14T01:16:34.190Z,19.92
2023-05-14T01:17:34.172Z,19.93
2023-05-14T01:18:35.255Z,19.92
2023-05-14T01:19:35.165Z,19.92
2023-05-14T01:20:34.226Z,19.93
2023-05-14T01:21:35.168Z,19.92
2023-05-14T01:22:34.176Z,19.92
2023-05-14T01:23:34.187Z,19.91
2023-05-14T01:24:34.369Z,19.92
2023-05-14T01:25:34.232Z,19.91
2023-05-14T01:26:34.214Z,19.91
2023-05-14T01:27:34.246Z,19.92
2023-05-14T01:28:34.239Z,19.91
2023-05-14T01:29:35.288Z,19.91
2023-05-14T01:30:34.314Z,19.92
2023-05-14T01:31:35.388Z,19.91
2023-05-14T01:32:34.351Z,19.91
2023-05-14T01:33:34.300Z,19.91
2023-05-14T01:34:34.314Z,19.91
2023-05-14T01:35:35.308Z,19.91
2023-05-14T01:36:35.413Z,19.91
2023-05-14T01:37:35.315Z,19.91
2023-05-14T01:38:35.332Z,19.90
2023-05-14T01:39:34.339Z,19.91
2023-05-14T01:40:34.361Z,19.90
2023-05-14T01:41:35.372Z,19.90
2023-05-14T01:42:35.380Z,19.90
2023-05-14T01:43:34.464Z,19.90
2023-05-14T01:44:35.387Z,19.90
2023-05-14T01:45:35.431Z,19.90
2023-05-14T01:46:35.477Z,19.90
2023-05-14T01:47:34.462Z,19.89
2023-05-14T01:48:34.431Z,19.89
2023-05-14T01:49:35.439Z,19.90
2023-05-14T01:50:35.469Z,19.89
2023-05-14T01:51:34.454Z,19.89
2023-05-14T01:52:35.521Z,19.89
2023-05-14T01:53:35.596Z,19.89
2023-05-14T01:54:35.503Z,19.90
2023-05-14T01:55:34.527Z,19.89
2023-05-14T01:56:34.534Z,19.89
2023-05-14T01:57:35.547Z,19.88
2023-05-14T01:58:34.558Z,19.89
2023-05-14T01:59:35.575Z,19.88
2023-05-14T02:00:35.588Z,19.89
2023-05-14T02:01:35.627Z,19.88
2023-05-14T02:02:34.673Z,19.88
2023-05-14T02:03:35.656Z,19.89
2023-05-14T02:04:35.658Z,19.88
2023-05-14T02:05:35.666Z,19.88
2023-05-14T02:06:35.688Z,19.87
2023-05-14T02:07:34.694Z,19.88
2023-05-14T02:08:34.729Z,19.88
2023-05-14T02:09:34.739Z,19.87
2023-05-14T02:10:35.731Z,19.87
2023-05-14T02:11:35.768Z,19.87
2023-05-14T02:12:34.771Z,19.87
2023-05-14T02:13:35.781Z,19.87
2023-05-14T02:14:35.800Z,19.88
2023-05-14T02:15:34.852Z,19.87
2023-05-14T02:16:35.810Z,19.87
2023-05-14T02:17:35.849Z,19.87
2023-05-14T02:18:34.867Z,19.87
2023-05-14T02:19:34.856Z,19.88
2023-05-14T02:20:35.061Z,19.87
2023-05-14T02:21:35.876Z,19.87
2023-05-14T02:22:35.883Z,19.87
2023-05-14T02:23:41.507Z,19.87
2023-05-14T02:24:35.924Z,19.86
2023-05-14T02:25:34.885Z,19.86
2023-05-14T02:26:35.892Z,19.86
2023-05-14T02:27:35.891Z,19.86
2023-05-14T02:28:34.863Z,19.85
2023-05-14T02:29:35.028Z,19.86
2023-05-14T02:30:34.866Z,19.87
2023-05-14T02:31:34.920Z,19.86
2023-05-14T02:32:34.953Z,19.86
2023-05-14T02:33:35.978Z,19.86
2023-05-14T02:34:35.819Z,19.86
2023-05-14T02:35:35.826Z,19.86
2023-05-14T02:36:34.832Z,19.85
2023-05-14T02:37:34.848Z,19.86
2023-05-14T02:38:35.797Z,19.86
2023-05-14T02:39:35.798Z,19.85
2023-05-14T02:40:35.792Z,19.85
2023-05-14T02:41:34.786Z,19.85
2023-05-14T02:42:34.769Z,19.85
2023-05-14T02:43:35.789Z,19.84
2023-05-14T02:44:35.744Z,19.85
2023-05-14T02:45:34.748Z,19.85
2023-05-14T02:46:35.801Z,19.85
2023-05-14T02:47:37.964Z,19.84
2023-05-14T02:48:34.721Z,19.84
2023-05-14T02:49:35.711Z,19.84
2023-05-14T02:50:35.727Z,19.85
2023-05-14T02:51:35.743Z,19.84
2023-05-14T02:52:34.755Z,19.84
2023-05-14T02:53:34.709Z,19.84
2023-05-14T02:54:35.690Z,19.84
2023-05-14T02:55:34.669Z,19.84
2023-05-14T02:56:34.712Z,19.83
2023-05-14T02:57:34.665Z,19.83
2023-05-14T02:58:35.656Z,19.84
2023-05-14T02:59:35.647Z,19.83
2023-05-14T03:00:35.677Z,19.83
2023-05-14T03:01:35.640Z,19.83
2023-05-14T03:02:35.733Z,19.82
2023-05-14T03:03:34.628Z,19.82
2023-05-14T03:04:35.626Z,19.83
2023-05-14T03:05:35.610Z,19.83
2023-05-14T03:06:34.646Z,19.83
2023-05-14T03:07:35.620Z,19.82
2023-05-14T03:08:34.579Z,19.82
2023-05-14T03:09:37.967Z,19.83
2023-05-14T03:10:35.600Z,19.82
2023-05-14T03:11:34.575Z,19.82
2023-05-14T03:12:34.591Z,19.82
2023-05-14T03:13:35.551Z,19.82
2023-05-14T03:14:34.555Z,19.82
2023-05-14T03:15:34.567Z,19.81
2023-05-14T03:16:35.590Z,19.82
2023-05-14T03:17:34.576Z,19.82
2023-05-14T03:18:34.540Z,19.81
2023-05-14T03:19:35.525Z,19.81
2023-05-14T03:20:34.491Z,19.82
2023-05-14T03:21:35.518Z,19.81
2023-05-14T03:22:35.522Z,19.81
2023-05-14T03:23:34.504Z,19.81
2023-05-14T03:24:35.482Z,19.81
2023-05-14T03:25:35.474Z,19.81
2023-05-14T03:26:35.471Z,19.81
2023-05-14T03:27:35.746Z,19.81
2023-05-14T03:28:34.480Z,19.81
2023-05-14T03:29:35.460Z,19.81
2023-05-14T03:30:35.503Z,19.81
2023-05-14T03:31:34.451Z,19.81
2023-05-14T03:32:34.455Z,19.81
2023-05-14T03:33:34.414Z,19.81
2023-05-14T03:34:34.425Z,19.81
2023-05-14T03:35:34.426Z,19.81
2023-05-14T03:36:35.423Z,19.81
2023-05-14T03:37:35.406Z,19.80
2023-05-14T03:38:34.368Z,19.80
2023-05-14T03:39:35.368Z,19.80
2023-05-14T03:40:35.377Z,19.80
2023-05-14T03:41:34.370Z,19.80
2023-05-14T03:42:35.374Z,19.80
2023-05-14T03:43:35.358Z,19.80
2023-05-14T03:44:34.364Z,19.80
2023-05-14T03:45:35.326Z,19.80
2023-05-14T03:46:35.352Z,19.80
2023-05-14T03:47:35.345Z,19.80
2023-05-14T03:48:34.327Z,19.80
2023-05-14T03:49:34.303Z,19.80
2023-05-14T03:50:34.330Z,19.80
2023-05-14T03:51:35.289Z,19.79
2023-05-14T03:52:34.291Z,19.79
2023-05-14T03:53:35.270Z,19.79
2023-05-14T03:54:35.263Z,19.79
2023-05-14T03:55:35.278Z,19.79
2023-05-14T03:56:34.255Z,19.79
2023-05-14T03:57:34.247Z,19.80
2023-05-14T03:58:34.238Z,19.79
2023-05-14T03:59:34.251Z,19.79
2023-05-14T04:00:35.253Z,19.80
2023-05-14T04:01:35.211Z,19.79
2023-05-14T04:02:34.392Z,19.79
2023-05-14T04:03:35.377Z,19.79
2023-05-14T04:04:35.323Z,19.79
2023-05-14T04:05:34.303Z,19.78
2023-05-14T04:06:34.315Z,19.78
2023-05-14T04:07:34.336Z,19.79
2023-05-14T04:08:35.357Z,19.78
2023-05-14T04:09:34.386Z,19.78
2023-05-14T04:10:35.396Z,19.79
2023-05-14T04:11:34.446Z,19.78
2023-05-14T04:12:35.480Z,19.78
2023-05-14T04:13:35.488Z,19.77
2023-05-14T04:14:35.499Z,19.78
2023-05-14T04:15:34.641Z,19.77
2023-05-14T04:16:34.626Z,19.77
2023-05-14T04:17:35.669Z,19.77
2023-05-14T04:18:35.627Z,19.77
2023-05-14T04:19:35.645Z,19.77
2023-05-14T04:20:34.634Z,19.77
2023-05-14T04:21:35.673Z,19.76
2023-05-14T04:22:35.675Z,19.78
2023-05-14T04:23:35.695Z,19.77
2023-05-14T04:24:34.715Z,19.77
2023-05-14T04:25:35.744Z,19.76
2023-05-14T04:26:34.758Z,19.75
2023-05-14T04:27:35.766Z,19.76
2023-05-14T04:28:35.790Z,19.76
2023-05-14T04:29:35.810Z,19.76
2023-05-14T04:30:35.816Z,19.75
2023-05-14T04:31:35.888Z,19.76
2023-05-14T04:32:35.900Z,19.76
2023-05-14T04:33:35.876Z,19.76
2023-05-14T04:34:35.911Z,19.75
2023-05-14T04:35:36.037Z,19.75
2023-05-14T04:36:35.955Z,19.75
2023-05-14T04:37:34.968Z,19.75
2023-05-14T04:38:36.001Z,19.75
2023-05-14T04:39:36.021Z,19.75
2023-05-14T04:40:35.054Z,19.75
2023-05-14T04:41:36.085Z,19.75
2023-05-14T04:42:36.121Z,19.75
2023-05-14T04:43:35.123Z,19.75
2023-05-14T04:44:36.141Z,19.75
2023-05-14T04:45:35.209Z,19.75
2023-05-14T04:46:36.229Z,19.75
2023-05-14T04:47:36.288Z,19.75
2023-05-14T04:48:35.204Z,19.75
2023-05-14T04:49:35.245Z,19.75
2023-05-14T04:50:36.324Z,19.75
2023-05-14T04:51:36.264Z,19.75
2023-05-14T04:52:36.293Z,19.74
2023-05-14T04:53:36.310Z,19.74
2023-05-14T04:54:36.355Z,19.75
2023-05-14T04:55:36.376Z,19.74
2023-05-14T04:56:36.370Z,19.75
2023-05-14T04:57:36.390Z,19.75
2023-05-14T04:58:36.415Z,19.75
2023-05-14T04:59:36.442Z,19.75
2023-05-14T05:00:36.475Z,19.74
2023-05-14T05:01:36.565Z,19.74
2023-05-14T05:02:35.548Z,19.74
2023-05-14T05:03:36.584Z,19.75
2023-05-14T05:04:36.562Z,19.74
2023-05-14T05:05:36.628Z,19.74
2023-05-14T05:06:36.646Z,19.74
2023-05-14T05:07:36.637Z,19.74
2023-05-14T05:08:36.786Z,19.74
2023-05-14T05:09:36.711Z,19.74
2023-05-14T05:10:35.752Z,19.74
2023-05-14T05:11:35.774Z,19.74
2023-05-14T05:12:36.794Z,19.74
2023-05-14T05:13:36.830Z,19.74
2023-05-14T05:14:36.848Z,19.74
2023-05-14T05:15:36.905Z,19.73
2023-05-14T05:16:36.936Z,19.74
2023-05-14T05:17:36.954Z,19.74
2023-05-14T05:18:40.804Z,19.73
2023-05-14T05:19:43.637Z,19.73
2023-05-14T05:20:36.969Z,19.73
2023-05-14T05:21:35.942Z,19.73
2023-05-14T05:22:36.959Z,19.73
2023-05-14T05:23:35.927Z,19.74
2023-05-14T05:24:35.948Z,19.74
2023-05-14T05:25:35.999Z,19.74
2023-05-14T05:26:36.984Z,19.74
2023-05-14T05:27:35.918Z,19.73
2023-05-14T05:28:36.892Z,19.74
2023-05-14T05:29:36.900Z,19.73
2023-05-14T05:30:36.904Z,19.74
2023-05-14T05:31:36.953Z,19.74
2023-05-14T05:32:36.919Z,19.73
2023-05-14T05:33:35.871Z,19.74
2023-05-14T05:34:35.890Z,19.73
2023-05-14T05:35:35.918Z,19.74
2023-05-14T05:36:35.942Z,19.74
2023-05-14T05:37:35.826Z,19.74
2023-05-14T05:38:36.841Z,19.74
2023-05-14T05:39:35.820Z,19.74
2023-05-14T05:40:35.813Z,19.73
2023-05-14T05:41:36.845Z,19.74
2023-05-14T05:42:35.804Z,19.73
2023-05-14T05:43:36.802Z,19.74
2023-05-14T05:44:36.788Z,19.73
2023-05-14T05:45:36.769Z,19.74
2023-05-14T05:46:36.828Z,19.73
2023-05-14T05:47:36.822Z,19.73
2023-05-14T05:48:36.782Z,19.73
2023-05-14T05:49:36.740Z,19.73
2023-05-14T05:50:36.763Z,19.74
2023-05-14T05:51:36.788Z,19.73
2023-05-14T05:52:36.753Z,19.74
2023-05-14T05:53:36.712Z,19.73
2023-05-14T05:54:36.706Z,19.74
2023-05-14T05:55:36.699Z,19.73
2023-05-14T05:56:35.686Z,19.73
2023-05-14T05:57:36.697Z,19.74
2023-05-14T05:58:35.673Z,19.73
2023-05-14T05:59:36.678Z,19.74
2023-05-14T06:00:35.671Z,19.74
2023-05-14T06:01:35.741Z,19.74
2023-05-14T06:02:36.749Z,19.74
2023-05-14T06:03:36.643Z,19.74
2023-05-14T06:04:36.635Z,19.74
2023-05-14T06:05:36.658Z,19.75
2023-05-14T06:06:36.649Z,19.74
2023-05-14T06:07:36.644Z,19.74
2023-05-14T06:08:35.617Z,19.74
2023-05-14T06:09:35.619Z,19.74
2023-05-14T06:10:35.614Z,19.74
2023-05-14T06:11:36.649Z,19.74
2023-05-14T06:12:35.676Z,19.75
2023-05-14T06:13:37.433Z,19.75
2023-05-14T06:14:36.725Z,19.75
2023-05-14T06:15:36.757Z,19.75
2023-05-14T06:16:35.844Z,19.75
2023-05-14T06:17:35.861Z,19.75
2023-05-14T06:18:36.829Z,19.75
2023-05-14T06:19:36.838Z,19.75
2023-05-14T06:20:35.863Z,19.75
2023-05-14T06:21:35.908Z,19.75
2023-05-14T06:22:36.932Z,19.75
2023-05-14T06:23:35.929Z,19.75
2023-05-14T06:24:36.964Z,19.75
2023-05-14T06:25:36.978Z,19.75
2023-05-14T06:26:36.991Z,19.76
2023-05-14T06:27:37.039Z,19.77
2023-05-14T06:28:37.055Z,19.77
2023-05-14T06:29:37.090Z,19.77
2023-05-14T06:30:37.139Z,19.77
2023-05-14T06:31:36.163Z,19.77
2023-05-14T06:32:36.329Z,19.77
2023-05-14T06:33:36.195Z,19.76
2023-05-14T06:34:37.244Z,19.77
2023-05-14T06:35:36.229Z,19.78
2023-05-14T06:36:37.271Z,19.77
2023-05-14T06:37:36.301Z,19.78
2023-05-14T06:38:37.330Z,19.78
2023-05-14T06:39:37.363Z,19.78
2023-05-14T06:40:37.382Z,19.78
2023-05-14T06:41:37.381Z,19.79
2023-05-14T06:42:36.400Z,19.79
2023-05-14T06:43:37.430Z,19.79
2023-05-14T06:44:36.459Z,19.79
2023-05-14T06:45:37.464Z,19.79
2023-05-14T06:46:37.473Z,19.79
2023-05-14T06:47:36.569Z,19.79
2023-05-14T06:48:36.544Z,19.79
2023-05-14T06:49:37.521Z,19.78
2023-05-14T06:50:37.551Z,19.79
2023-05-14T06:51:36.536Z,19.79
2023-05-14T06:52:37.580Z,19.79
2023-05-14T06:53:37.593Z,19.80
2023-05-14T06:54:36.641Z,19.79
2023-05-14T06:55:37.624Z,19.79
2023-05-14T06:56:36.659Z,19.80
2023-05-14T06:57:38.594Z,19.80
2023-05-14T06:58:37.678Z,19.80
2023-05-14T06:59:36.643Z,19.79
2023-05-14T07:00:37.654Z,19.81
2023-05-14T07:01:36.710Z,19.80
2023-05-14T07:02:37.682Z,19.80
2023-05-14T07:03:36.636Z,19.80
2023-05-14T07:04:37.754Z,19.81
2023-05-14T07:05:37.635Z,19.81
2023-05-14T07:06:37.594Z,19.81
2023-05-14T07:07:37.635Z,19.81
2023-05-14T07:08:37.581Z,19.81
2023-05-14T07:09:37.627Z,19.81
2023-05-14T07:10:36.597Z,19.81
2023-05-14T07:11:37.288Z,19.82
2023-05-14T07:12:37.553Z,19.82
2023-05-14T07:13:37.542Z,19.81
2023-05-14T07:14:37.548Z,19.83
2023-05-14T07:15:37.532Z,19.83
2023-05-14T07:16:36.575Z,19.83
2023-05-14T07:17:36.536Z,19.83
2023-05-14T07:18:37.578Z,19.84
2023-05-14T07:19:36.497Z,19.84
2023-05-14T07:20:37.497Z,19.84
2023-05-14T07:21:37.492Z,19.85
2023-05-14T07:22:36.478Z,19.84
2023-05-14T07:23:37.537Z,19.85
2023-05-14T07:24:37.484Z,19.85
2023-05-14T07:25:36.471Z,19.85
2023-05-14T07:26:37.476Z,19.85
2023-05-14T07:27:37.446Z,19.85
2023-05-14T07:28:36.469Z,19.86
2023-05-14T07:29:37.437Z,19.85
2023-05-14T07:30:37.445Z,19.86
2023-05-14T07:31:37.486Z,19.87
2023-05-14T07:32:36.480Z,19.87
2023-05-14T07:33:37.410Z,19.87
2023-05-14T07:34:37.426Z,19.87
2023-05-14T07:35:37.407Z,19.87
2023-05-14T07:36:36.371Z,19.88
2023-05-14T07:37:37.372Z,19.87
2023-05-14T07:38:37.358Z,19.87
2023-05-14T07:39:37.360Z,19.88
2023-05-14T07:40:37.366Z,19.88
2023-05-14T07:41:37.409Z,19.88
2023-05-14T07:42:37.656Z,19.88
2023-05-14T07:43:37.335Z,19.88
2023-05-14T07:44:36.336Z,19.88
2023-05-14T07:45:37.319Z,19.88
2023-05-14T07:46:37.315Z,19.89
2023-05-14T07:47:37.436Z,19.89
2023-05-14T07:48:36.430Z,19.89
2023-05-14T07:49:37.291Z,19.90
2023-05-14T07:50:36.293Z,19.90
2023-05-14T07:51:36.277Z,19.90
2023-05-14T07:52:36.285Z,19.91
2023-05-14T07:53:37.324Z,19.91
2023-05-14T07:54:37.251Z,19.90
2023-05-14T07:55:36.253Z,19.91
2023-05-14T07:56:36.238Z,19.92
2023-05-14T07:57:37.281Z,19.91
2023-05-14T07:58:37.268Z,19.91
2023-05-14T07:59:37.222Z,19.92
2023-05-14T08:00:36.206Z,19.92
2023-05-14T08:01:39.173Z,19.92
2023-05-14T08:02:36.306Z,19.92
2023-05-14T08:03:37.284Z,19.93
2023-05-14T08:04:36.588Z,19.92
2023-05-14T08:05:37.186Z,19.93
2023-05-14T08:06:37.192Z,19.93
2023-05-14T08:07:38.040Z,19.94
2023-05-14T08:08:37.260Z,19.95
2023-05-14T08:09:36.148Z,19.94
2023-05-14T08:10:37.190Z,19.94
2023-05-14T08:11:37.177Z,19.95
2023-05-14T08:12:36.161Z,19.95
2023-05-14T08:13:37.150Z,19.95
2023-05-14T08:14:36.228Z,19.95
2023-05-14T08:15:37.168Z,19.96
2023-05-14T08:16:37.189Z,19.96
2023-05-14T08:17:37.113Z,19.95
2023-05-14T08:18:36.137Z,19.97
2023-05-14T08:19:37.103Z,19.96
2023-05-14T08:20:36.070Z,19.96
2023-05-14T08:21:37.068Z,19.96
2023-05-14T08:22:36.063Z,19.97
2023-05-14T08:23:37.040Z,19.97
2023-05-14T08:24:37.035Z,19.98
2023-05-14T08:25:36.039Z,19.98
2023-05-14T08:26:36.049Z,19.98
2023-05-14T08:27:37.013Z,19.98
2023-05-14T08:28:36.011Z,19.98
2023-05-14T08:29:35.996Z,19.99
2023-05-14T08:30:37.087Z,19.99
2023-05-14T08:31:36.990Z,19.99
2023-05-14T08:32:37.025Z,19.99
2023-05-14T08:33:35.982Z,19.99
2023-05-14T08:34:36.966Z,19.99
2023-05-14T08:35:35.955Z,20.01
2023-05-14T08:36:36.947Z,20.00
2023-05-14T08:37:35.935Z,20.01
2023-05-14T08:38:36.944Z,20.01
2023-05-14T08:39:35.931Z,20.01
2023-05-14T08:40:35.947Z,20.01
2023-05-14T08:41:35.945Z,20.02
2023-05-14T08:42:35.944Z,20.01
2023-05-14T08:43:35.990Z,20.02
2023-05-14T08:44:36.031Z,20.02
2023-05-14T08:45:37.003Z,20.02
2023-05-14T08:46:36.056Z,20.02
2023-05-14T08:47:37.047Z,20.03
2023-05-14T08:48:36.128Z,20.03
2023-05-14T08:49:36.058Z,20.03
2023-05-14T08:50:36.097Z,20.03
2023-05-14T08:51:37.080Z,20.03
2023-05-14T08:52:37.107Z,20.04
2023-05-14T08:53:37.106Z,20.04
2023-05-14T08:54:37.107Z,20.04
2023-05-14T08:55:36.123Z,20.04
2023-05-14T08:56:36.151Z,20.05
2023-05-14T08:57:37.158Z,20.05
2023-05-14T08:58:37.176Z,20.04
2023-05-14T08:59:37.183Z,20.05
2023-05-14T09:00:37.189Z,20.05
2023-05-14T09:01:36.212Z,20.05
2023-05-14T09:02:37.269Z,20.06
2023-05-14T09:03:37.279Z,20.06
2023-05-14T09:04:36.261Z,20.06
2023-05-14T09:05:37.262Z,20.07
2023-05-14T09:06:36.242Z,20.07
2023-05-14T09:07:37.271Z,20.08
2023-05-14T09:08:37.287Z,20.07
2023-05-14T09:09:36.299Z,20.07
2023-05-14T09:10:37.306Z,20.07
2023-05-14T09:11:37.331Z,20.08
2023-05-14T09:12:37.759Z,20.08
2023-05-14T09:13:37.332Z,20.08
2023-05-14T09:14:36.359Z,20.09
2023-05-14T09:15:37.368Z,20.09
2023-05-14T09:16:36.392Z,20.09
2023-05-14T09:17:37.399Z,20.09
2023-05-14T09:18:37.445Z,20.09
2023-05-14T09:19:37.412Z,20.10
2023-05-14T09:20:36.414Z,20.10
2023-05-14T09:21:36.417Z,20.10
2023-05-14T09:22:36.442Z,20.10
2023-05-14T09:23:36.431Z,20.11
2023-05-14T09:24:37.449Z,20.11
2023-05-14T09:25:37.474Z,20.11
2023-05-14T09:26:36.444Z,20.11
2023-05-14T09:27:37.473Z,20.11
2023-05-14T09:28:36.478Z,20.11
2023-05-14T09:29:36.448Z,20.12
2023-05-14T09:30:37.474Z,20.12
2023-05-14T09:31:37.515Z,20.13
2023-05-14T09:32:36.534Z,20.12
2023-05-14T09:33:36.514Z,20.13
2023-05-14T09:34:36.494Z,20.13
2023-05-14T09:35:37.487Z,20.13
2023-05-14T09:36:36.485Z,20.13
2023-05-14T09:37:37.508Z,20.13
2023-05-14T09:38:37.518Z,20.13
2023-05-14T09:39:36.514Z,20.13
2023-05-14T09:40:36.530Z,20.14
2023-05-14T09:41:37.516Z,20.14
2023-05-14T09:42:37.514Z,20.13
2023-05-14T09:43:37.519Z,20.14
2023-05-14T09:44:36.528Z,20.14
2023-05-14T09:45:36.511Z,20.15
2023-05-14T09:46:36.537Z,20.14
2023-05-14T09:47:37.624Z,20.15
2023-05-14T09:48:36.552Z,20.15
2023-05-14T09:49:36.528Z,20.15
2023-05-14T09:50:37.552Z,20.16
2023-05-14T09:51:37.525Z,20.15
2023-05-14T09:52:36.539Z,20.16
2023-05-14T09:53:36.545Z,20.15
2023-05-14T09:54:37.575Z,20.16
2023-05-14T09:55:37.566Z,20.16
2023-05-14T09:56:37.564Z,20.17
2023-05-14T09:57:37.559Z,20.16
2023-05-14T09:58:36.573Z,20.17
2023-05-14T09:59:37.687Z,20.17
2023-05-14T10:00:37.581Z,20.17
2023-05-14T10:01:37.756Z,20.17
2023-05-14T10:02:37.831Z,20.17
2023-05-14T10:03:36.584Z,20.17
2023-05-14T10:04:37.724Z,20.18
2023-05-14T10:05:37.594Z,20.18
2023-05-14T10:06:36.617Z,20.18
2023-05-14T10:07:37.620Z,20.18
2023-05-14T10:08:36.617Z,20.18
2023-05-14T10:09:37.623Z,20.18
2023-05-14T10:10:36.617Z,20.18
2023-05-14T10:11:36.644Z,20.18
2023-05-14T10:12:36.638Z,20.19
2023-05-14T10:13:36.656Z,20.18
2023-05-14T10:14:37.642Z,20.19
2023-05-14T10:15:36.647Z,20.19
2023-05-14T10:16:37.710Z,20.20
2023-05-14T10:17:36.658Z,20.19
2023-05-14T10:18:37.694Z,20.20
2023-05-14T10:19:36.652Z,20.20
2023-05-14T10:20:37.664Z,20.20
2023-05-14T10:21:37.640Z,20.20
2023-05-14T10:22:37.668Z,20.22
2023-05-14T10:23:36.635Z,20.21
2023-05-14T10:24:36.659Z,20.21
2023-05-14T10:25:37.638Z,20.22
2023-05-14T10:26:36.623Z,20.22
2023-05-14T10:27:37.672Z,20.22
2023-05-14T10:28:37.664Z,20.22
2023-05-14T10:29:36.648Z,20.22
2023-05-14T10:30:37.641Z,20.22
2023-05-14T10:31:37.823Z,20.23
2023-05-14T10:32:37.755Z,20.23
2023-05-14T10:33:37.669Z,20.23
2023-05-14T10:34:36.651Z,20.24
2023-05-14T10:35:36.656Z,20.25
2023-05-14T10:36:37.656Z,20.24
2023-05-14T10:37:37.658Z,20.25
2023-05-14T10:38:37.677Z,20.25
2023-05-14T10:39:37.650Z,20.25
2023-05-14T10:40:37.642Z,20.25
2023-05-14T10:41:36.653Z,20.26
2023-05-14T10:42:37.673Z,20.26
2023-05-14T10:43:37.665Z,20.26
2023-05-14T10:44:36.649Z,20.27
2023-05-14T10:45:36.618Z,20.27
2023-05-14T10:46:36.667Z,20.26
2023-05-14T10:47:36.638Z,20.26
2023-05-14T10:48:36.657Z,20.27
2023-05-14T10:49:43.415Z,20.28
2023-05-14T10:50:37.617Z,20.27
2023-05-14T10:51:37.944Z,20.28
2023-05-14T10:52:36.606Z,20.28
2023-05-14T10:53:37.627Z,20.29
2023-05-14T10:54:37.614Z,20.29
2023-05-14T10:55:37.587Z,20.29
2023-05-14T10:56:36.590Z,20.30
2023-05-14T10:57:37.571Z,20.29
2023-05-14T10:58:36.562Z,20.30
2023-05-14T10:59:36.583Z,20.31
2023-05-14T11:00:37.654Z,20.30
2023-05-14T11:01:37.565Z,20.30
2023-05-14T11:02:36.617Z,20.31
2023-05-14T11:03:37.582Z,20.31
2023-05-14T11:04:36.542Z,20.31
2023-05-14T11:05:37.514Z,20.31
2023-05-14T11:06:37.507Z,20.31
2023-05-14T11:07:36.515Z,20.32
2023-05-14T11:08:37.519Z,20.31
2023-05-14T11:09:37.507Z,20.32
2023-05-14T11:10:36.524Z,20.33
2023-05-14T11:11:36.530Z,20.32
2023-05-14T11:12:37.484Z,20.33
2023-05-14T11:13:36.469Z,20.33
2023-05-14T11:14:37.484Z,20.34
2023-05-14T11:15:36.464Z,20.33
2023-05-14T11:16:37.521Z,20.34
2023-05-14T11:17:37.600Z,20.34
2023-05-14T11:18:37.460Z,20.34
2023-05-14T11:19:37.432Z,20.34
2023-05-14T11:20:36.407Z,20.34
2023-05-14T11:21:36.473Z,20.34
2023-05-14T11:22:37.451Z,20.35
2023-05-14T11:23:36.503Z,20.35
2023-05-14T11:24:36.543Z,20.35
2023-05-14T11:25:37.572Z,20.35
2023-05-14T11:26:37.730Z,20.35
2023-05-14T11:27:36.608Z,20.35
2023-05-14T11:28:37.616Z,20.36
2023-05-14T11:29:37.672Z,20.36
2023-05-14T11:30:36.673Z,20.36
2023-05-14T11:31:36.731Z,20.36
2023-05-14T11:32:36.778Z,20.37
2023-05-14T11:33:36.850Z,20.36
2023-05-14T11:34:36.801Z,20.36
2023-05-14T11:35:37.813Z,20.37
2023-05-14T11:36:36.828Z,20.37
2023-05-14T11:37:36.869Z,20.37
2023-05-14T11:38:36.846Z,20.38
2023-05-14T11:39:37.869Z,20.37
2023-05-14T11:40:36.921Z,20.36
2023-05-14T11:41:37.913Z,20.37
2023-05-14T11:42:36.964Z,20.38
2023-05-14T11:43:36.975Z,20.38
2023-05-14T11:44:38.023Z,20.38
2023-05-14T11:45:38.093Z,20.38
2023-05-14T11:46:38.150Z,20.38
2023-05-14T11:47:37.222Z,20.38
2023-05-14T11:48:38.170Z,20.38
2023-05-14T11:49:38.211Z,20.39
2023-05-14T11:50:37.228Z,20.38
2023-05-14T11:51:38.245Z,20.39
2023-05-14T11:52:38.280Z,20.39
2023-05-14T11:53:37.328Z,20.39
2023-05-14T11:54:37.320Z,20.39
2023-05-14T11:55:38.348Z,20.38
2023-05-14T11:56:37.379Z,20.39
2023-05-14T11:57:37.425Z,20.39
2023-05-14T11:58:37.495Z,20.39
2023-05-14T11:59:38.508Z,20.39
2023-05-14T12:00:37.561Z,20.39
2023-05-14T12:01:37.591Z,20.39
2023-05-14T12:02:38.744Z,20.39
2023-05-14T12:03:38.872Z,20.39
2023-05-14T12:04:38.814Z,20.39
2023-05-14T12:05:38.824Z,20.40
2023-05-14T12:06:37.900Z,20.40
2023-05-14T12:07:37.934Z,20.40
2023-05-14T12:08:38.987Z,20.40
2023-05-14T12:09:39.103Z,20.41
2023-05-14T12:10:38.124Z,20.41
2023-05-14T12:11:38.179Z,20.41
2023-05-14T12:12:39.294Z,20.41
2023-05-14T12:13:39.281Z,20.42
2023-05-14T12:14:39.291Z,20.40
2023-05-14T12:15:39.372Z,20.41
2023-05-14T12:16:38.573Z,20.41
2023-05-14T12:17:39.498Z,20.41
2023-05-14T12:18:38.579Z,20.42
2023-05-14T12:19:38.508Z,20.42
2023-05-14T12:20:39.535Z,20.42
2023-05-14T12:21:39.550Z,20.42
2023-05-14T12:22:39.581Z,20.42
2023-05-14T12:23:38.640Z,20.41
2023-05-14T12:24:39.693Z,20.42
2023-05-14T12:25:38.718Z,20.41
2023-05-14T12:26:39.774Z,20.41
2023-05-14T12:27:38.859Z,20.42
2023-05-14T12:28:38.913Z,20.41
2023-05-14T12:29:40.017Z,20.41
2023-05-14T12:30:39.006Z,20.40
2023-05-14T12:31:39.128Z,20.42
2023-05-14T12:32:39.215Z,20.41
2023-05-14T12:33:39.227Z,20.40
2023-05-14T12:34:39.304Z,20.40
2023-05-14T12:35:40.438Z,20.41
2023-05-14T12:36:40.380Z,20.40
2023-05-14T12:37:40.460Z,20.40
2023-05-14T12:38:40.573Z,20.40
2023-05-14T12:39:39.568Z,20.40
2023-05-14T12:40:40.618Z,20.41
2023-05-14T12:41:39.686Z,20.41
2023-05-14T12:42:40.723Z,20.40
2023-05-14T12:43:39.805Z,20.39
2023-05-14T12:44:39.803Z,20.40
2023-05-14T12:45:40.881Z,20.40
2023-05-14T12:46:39.855Z,20.40
2023-05-14T12:47:40.927Z,20.39
2023-05-14T12:48:40.927Z,20.40
2023-05-14T12:49:39.977Z,20.39
2023-05-14T12:50:41.008Z,20.39
2023-05-14T12:51:41.056Z,20.39
2023-05-14T12:52:44.324Z,20.39